createdAt,value
2022-09-07T00:01:44.877Z,4.93
2022-09-07T00:04:46.909Z,5.43
2022-09-07T00:07:48.974Z,4.60
2022-09-07T00:11:02.806Z,5.30
2022-09-07T00:14:05.769Z,4.70
2022-09-07T00:17:07.846Z,5.03
2022-09-07T00:20:12.282Z,4.77
2022-09-07T00:23:14.355Z,4.70
2022-09-07T00:26:24.970Z,5.10
2022-09-07T00:29:26.897Z,4.90
2022-09-07T00:32:29.012Z,4.93
2022-09-07T00:35:31.049Z,5.17
2022-09-07T00:38:33.316Z,5.17
2022-09-07T00:41:35.323Z,4.83
2022-09-07T00:45:19.720Z,4.80
2022-09-07T00:48:25.558Z,4.80
2022-09-07T00:51:57.930Z,5.40
2022-09-07T00:55:03.810Z,5.40
2022-09-07T00:58:07.348Z,4.00
2022-09-07T01:05:35.124Z,4.97
2022-09-07T01:08:37.350Z,4.90
2022-09-07T01:11:40.383Z,4.87
2022-09-07T01:14:48.937Z,4.70
2022-09-07T01:18:26.465Z,5.13
2022-09-07T01:21:53.385Z,4.97
2022-09-07T01:25:20.207Z,4.90
2022-09-07T01:28:34.471Z,5.03
2022-09-07T01:31:55.954Z,5.20
2022-09-07T01:35:03.015Z,5.30
2022-09-07T01:38:17.753Z,4.93
2022-09-07T01:41:44.003Z,5.43
2022-09-07T01:44:55.505Z,5.47
2022-09-07T01:48:03.616Z,5.10
2022-09-07T01:51:06.101Z,5.20
2022-09-07T01:54:38.193Z,4.87
2022-09-07T01:57:47.946Z,5.60
2022-09-07T02:01:00.438Z,5.40
2022-09-07T02:04:27.223Z,5.33
2022-09-07T02:07:42.678Z,5.10
2022-09-07T02:11:08.626Z,4.60
2022-09-07T02:14:17.812Z,5.33
2022-09-07T02:17:28.944Z,5.70
2022-09-07T02:20:36.764Z,4.90
2022-09-07T02:23:44.282Z,4.97
2022-09-07T02:26:49.647Z,4.97
2022-09-07T02:29:52.391Z,5.37
2022-09-07T02:32:56.466Z,5.17
2022-09-07T02:35:58.785Z,5.57
2022-09-07T02:39:00.848Z,5.17
2022-09-07T02:42:03.035Z,5.83
2022-09-07T02:45:08.165Z,5.27
2022-09-07T02:48:52.122Z,5.43
2022-09-07T02:52:20.634Z,4.60
2022-09-07T02:55:55.053Z,5.77
2022-09-07T02:59:00.012Z,5.07
2022-09-07T03:02:07.028Z,5.07
2022-09-07T03:05:39.105Z,5.47
2022-09-07T03:08:47.010Z,4.93
2022-09-07T03:11:50.190Z,5.30
2022-09-07T03:14:52.261Z,5.23
2022-09-07T03:17:54.484Z,5.33
2022-09-07T03:20:56.618Z,4.47
2022-09-07T03:23:58.636Z,5.20
2022-09-07T03:27:01.428Z,4.53
2022-09-07T03:30:06.240Z,4.87
2022-09-07T03:33:08.281Z,5.07
2022-09-07T03:36:10.351Z,4.70
2022-09-07T03:39:14.226Z,4.73
2022-09-07T03:42:16.377Z,5.03
2022-09-07T03:45:18.703Z,5.77
2022-09-07T03:48:20.752Z,4.60
2022-09-07T03:51:23.105Z,5.00
2022-09-07T03:54:25.175Z,5.03
2022-09-07T03:57:27.351Z,4.80
2022-09-07T04:00:29.401Z,4.77
2022-09-07T04:03:31.430Z,5.17
2022-09-07T04:06:34.043Z,4.90
2022-09-07T04:09:36.069Z,4.67
2022-09-07T04:12:38.325Z,5.57
2022-09-07T04:15:40.383Z,4.93
2022-09-07T04:18:42.740Z,5.00
2022-09-07T04:21:46.859Z,4.83
2022-09-07T04:24:48.930Z,5.00
2022-09-07T04:27:51.016Z,5.37
2022-09-07T04:30:53.120Z,4.73
2022-09-07T04:33:56.551Z,5.37
2022-09-07T04:36:58.561Z,5.00
2022-09-07T04:40:00.656Z,5.50
2022-09-07T04:43:02.840Z,5.07
2022-09-07T04:46:06.947Z,5.33
2022-09-07T04:49:12.204Z,5.10
2022-09-07T04:52:14.324Z,5.17
2022-09-07T04:55:16.945Z,4.80
2022-09-07T04:58:18.929Z,4.90
2022-09-07T05:01:23.444Z,5.10
2022-09-07T05:04:25.516Z,5.30
2022-09-07T05:07:27.635Z,5.57
2022-09-07T05:10:29.684Z,5.20
2022-09-07T05:13:32.245Z,4.80
2022-09-07T05:16:34.402Z,5.10
2022-09-07T05:19:36.527Z,5.53
2022-09-07T05:22:41.275Z,5.27
2022-09-07T05:25:45.472Z,5.80
2022-09-07T05:28:47.855Z,5.63
2022-09-07T05:31:50.143Z,6.33
2022-09-07T05:34:53.021Z,6.30
2022-09-07T05:37:55.188Z,5.80
2022-09-07T05:40:57.578Z,6.20
2022-09-07T05:47:22.002Z,6.80
2022-09-07T05:50:24.112Z,7.00
2022-09-07T05:53:26.379Z,5.80
2022-09-07T05:56:28.446Z,5.67
2022-09-07T05:59:30.591Z,5.37
2022-09-07T06:02:36.506Z,5.10
2022-09-07T06:05:41.841Z,4.77
2022-09-07T06:08:52.552Z,4.87
2022-09-07T06:11:54.607Z,5.13
2022-09-07T06:14:56.703Z,4.70
2022-09-07T06:17:59.318Z,6.43
2022-09-07T06:21:10.571Z,5.10
2022-09-07T06:24:12.586Z,4.60
2022-09-07T06:27:14.677Z,6.13
2022-09-07T06:30:16.961Z,5.50
2022-09-07T06:33:21.981Z,5.07
2022-09-07T06:36:27.943Z,5.13
2022-09-07T06:39:30.133Z,5.07
2022-09-07T06:42:32.389Z,4.57
2022-09-07T06:45:34.458Z,5.23
2022-09-07T06:48:36.761Z,5.00
2022-09-07T06:51:39.032Z,5.93
2022-09-07T06:58:03.242Z,8.30
2022-09-07T07:01:12.652Z,8.40
2022-09-07T07:04:14.732Z,8.17
2022-09-07T07:07:16.893Z,8.40
2022-09-07T07:10:24.331Z,7.47
2022-09-07T07:13:27.676Z,7.17
2022-09-07T07:16:29.868Z,6.70
2022-09-07T07:19:31.977Z,7.03
2022-09-07T07:22:49.174Z,7.33
2022-09-07T07:25:51.320Z,7.47
2022-09-07T07:32:01.324Z,8.53
2022-09-07T07:35:03.474Z,6.63
2022-09-07T07:48:17.418Z,4.63
2022-09-07T07:51:21.172Z,4.67
2022-09-07T07:54:23.204Z,6.83
2022-09-07T07:57:25.205Z,7.23
2022-09-07T08:00:50.902Z,5.80
2022-09-07T08:03:49.886Z,5.20
2022-09-07T08:06:52.567Z,5.10
2022-09-07T08:09:54.624Z,3.77
2022-09-07T08:12:57.084Z,3.70
2022-09-07T08:15:59.531Z,4.33
2022-09-07T08:19:02.690Z,3.63
2022-09-07T08:22:05.187Z,4.40
2022-09-07T08:25:07.846Z,6.77
2022-09-07T08:28:09.850Z,4.20
2022-09-07T08:31:14.857Z,4.03
2022-09-07T08:34:17.545Z,4.77
2022-09-07T08:37:19.677Z,5.47
2022-09-07T08:40:21.665Z,5.07
2022-09-07T08:43:49.355Z,6.80
2022-09-07T08:46:54.664Z,5.50
2022-09-07T08:50:23.054Z,4.65
2022-09-07T08:53:26.283Z,4.82
2022-09-07T08:56:33.939Z,4.40
2022-09-07T09:00:12.354Z,5.10
2022-09-07T09:03:30.981Z,5.75
2022-09-07T09:06:59.577Z,4.40
2022-09-07T09:10:36.894Z,3.85
2022-09-07T09:13:52.350Z,3.70
2022-09-07T09:17:17.336Z,4.78
2022-09-07T09:20:19.237Z,4.13
2022-09-07T09:23:27.058Z,3.97
2022-09-07T09:26:34.316Z,3.88
2022-09-07T09:29:36.332Z,5.00
2022-09-07T09:32:41.864Z,4.13
2022-09-07T09:35:46.429Z,4.93
2022-09-07T09:38:48.420Z,5.07
2022-09-07T09:41:50.482Z,4.65
2022-09-07T09:44:54.155Z,3.75
2022-09-07T09:47:57.962Z,4.18
2022-09-07T09:54:29.400Z,4.30
2022-09-07T10:01:27.298Z,4.15
2022-09-07T10:04:35.779Z,4.40
2022-09-07T10:07:38.334Z,5.00
2022-09-07T10:10:50.984Z,3.97
2022-09-07T10:13:57.997Z,3.85
2022-09-07T10:17:02.013Z,4.22
2022-09-07T10:20:15.628Z,3.65
2022-09-07T10:23:23.680Z,3.85
2022-09-07T10:26:32.801Z,3.97
2022-09-07T10:29:38.944Z,4.00
2022-09-07T10:32:57.191Z,4.00
2022-09-07T10:36:20.206Z,4.30
2022-09-07T10:39:29.918Z,4.10
2022-09-07T10:42:36.087Z,3.95
2022-09-07T10:45:47.366Z,4.28
2022-09-07T10:49:01.453Z,4.80
2022-09-07T10:52:15.866Z,4.00
2022-09-07T10:55:33.697Z,3.83
2022-09-07T11:02:41.130Z,3.78
2022-09-07T11:05:43.203Z,3.83
2022-09-07T11:09:23.204Z,3.55
2022-09-07T11:12:36.264Z,4.18
2022-09-07T11:15:49.909Z,3.88
2022-09-07T11:22:39.665Z,3.53
2022-09-07T11:25:58.448Z,4.20
2022-09-07T11:29:35.964Z,3.85
2022-09-07T11:32:42.905Z,4.00
2022-09-07T11:35:58.813Z,3.55
2022-09-07T11:39:07.559Z,4.10
2022-09-07T11:45:51.517Z,4.07
2022-09-07T11:48:56.488Z,3.72
2022-09-07T11:52:09.101Z,4.13
2022-09-07T11:55:20.783Z,3.50
2022-09-07T11:58:43.244Z,3.97
2022-09-07T12:01:57.093Z,3.50
2022-09-07T12:05:17.284Z,3.53
2022-09-07T12:09:17.816Z,4.55
2022-09-07T12:12:34.950Z,3.53
2022-09-07T12:15:48.231Z,3.88
2022-09-07T12:19:07.835Z,4.00
2022-09-07T12:22:21.399Z,4.40
2022-09-07T12:25:23.698Z,4.15
2022-09-07T12:28:25.762Z,3.75
2022-09-07T12:35:28.925Z,3.97
2022-09-07T12:38:31.001Z,3.67
2022-09-07T12:41:47.397Z,3.72
2022-09-07T12:45:28.337Z,3.92
2022-09-07T12:48:39.517Z,3.53
2022-09-07T12:55:27.465Z,3.60
2022-09-07T12:58:35.373Z,3.92
2022-09-07T13:05:19.049Z,3.58
2022-09-07T13:08:39.582Z,3.33
2022-09-07T13:11:42.104Z,3.40
2022-09-07T13:14:52.862Z,3.10
2022-09-07T13:17:56.257Z,3.20
2022-09-07T13:21:07.238Z,3.50
2022-09-07T13:27:51.264Z,3.88
2022-09-07T13:31:06.115Z,3.25
2022-09-07T13:34:44.848Z,3.22
2022-09-07T13:37:54.398Z,2.85
2022-09-07T13:41:05.503Z,3.72
2022-09-07T13:44:23.576Z,3.55
2022-09-07T13:47:55.956Z,3.50
2022-09-07T13:51:14.581Z,3.60
2022-09-07T13:54:39.136Z,3.20
2022-09-07T13:58:08.927Z,3.40
2022-09-07T14:01:18.893Z,3.03
2022-09-07T14:04:39.518Z,4.00
2022-09-07T14:07:48.422Z,3.55
2022-09-07T14:10:50.475Z,3.22
2022-09-07T14:14:27.886Z,2.78
2022-09-07T14:17:31.409Z,3.17
2022-09-07T14:20:40.812Z,2.92
2022-09-07T14:23:42.937Z,3.28
2022-09-07T14:26:48.043Z,2.95
2022-09-07T14:29:50.081Z,3.10
2022-09-07T14:32:58.135Z,3.47
2022-09-07T14:36:06.202Z,3.45
2022-09-07T14:39:22.623Z,3.08
2022-09-07T14:42:24.985Z,3.17
2022-09-07T14:45:26.886Z,3.15
2022-09-07T14:48:32.478Z,3.20
2022-09-07T14:51:43.617Z,3.95
2022-09-07T14:54:52.325Z,2.80
2022-09-07T14:58:16.147Z,3.03
2022-09-07T15:01:39.737Z,2.80
2022-09-07T15:04:41.899Z,3.25
2022-09-07T15:07:48.252Z,2.97
2022-09-07T15:14:25.629Z,2.63
2022-09-07T15:17:48.359Z,2.80
2022-09-07T15:20:51.019Z,2.88
2022-09-07T15:23:55.962Z,3.15
2022-09-07T15:27:05.214Z,2.83
2022-09-07T15:30:09.963Z,2.97
2022-09-07T15:33:11.956Z,3.75
2022-09-07T15:36:16.586Z,2.83
2022-09-07T15:39:25.307Z,3.08
2022-09-07T15:45:51.254Z,3.35
2022-09-07T15:48:55.917Z,3.50
2022-09-07T15:52:05.700Z,3.30
2022-09-07T15:55:09.452Z,3.42
2022-09-07T15:58:14.390Z,3.42
2022-09-07T16:04:38.830Z,3.28
2022-09-07T16:11:23.971Z,2.83
2022-09-07T16:14:26.270Z,3.10
2022-09-07T16:17:35.619Z,3.50
2022-09-07T16:20:41.251Z,2.88
2022-09-07T16:23:49.560Z,3.22
2022-09-07T16:26:51.626Z,3.35
2022-09-07T16:29:53.531Z,3.17
2022-09-07T16:32:55.578Z,3.35
2022-09-07T16:36:02.477Z,2.78
2022-09-07T16:39:04.695Z,3.53
2022-09-07T16:42:07.286Z,3.10
2022-09-07T16:48:33.957Z,3.45
2022-09-07T16:51:36.219Z,3.08
2022-09-07T16:54:38.259Z,3.75
2022-09-07T17:01:02.358Z,4.25
2022-09-07T17:04:09.873Z,3.50
2022-09-07T17:07:13.054Z,3.55
2022-09-07T17:10:15.100Z,3.67
2022-09-07T17:13:17.498Z,3.40
2022-09-07T17:16:25.337Z,3.38
2022-09-07T17:19:30.617Z,3.42
2022-09-07T17:22:32.802Z,3.20
2022-09-07T17:25:34.884Z,3.50
2022-09-07T17:28:38.017Z,4.15
2022-09-07T17:35:02.109Z,3.50
2022-09-07T17:39:13.932Z,3.90
2022-09-07T17:41:28.963Z,3.77
2022-09-07T17:44:37.636Z,3.57
2022-09-07T17:47:41.053Z,3.77
2022-09-07T17:50:43.597Z,3.93
2022-09-07T17:53:46.401Z,4.10
2022-09-07T17:56:48.809Z,3.90
2022-09-07T18:03:13.517Z,4.20
2022-09-07T18:06:15.800Z,4.50
2022-09-07T18:09:20.100Z,4.80
2022-09-07T18:12:23.096Z,4.70
2022-09-07T18:15:25.487Z,4.90
2022-09-07T18:18:28.590Z,4.23
2022-09-07T18:21:34.139Z,4.80
2022-09-07T18:24:36.807Z,5.00
2022-09-07T18:27:39.851Z,5.10
2022-09-07T18:30:43.406Z,4.97
2022-09-07T18:33:47.683Z,4.50
2022-09-07T18:36:50.525Z,5.00
2022-09-07T18:39:54.369Z,5.33
2022-09-07T18:42:57.975Z,4.80
2022-09-07T18:46:05.069Z,5.03
2022-09-07T18:49:07.954Z,5.10
2022-09-07T18:55:33.701Z,5.40
2022-09-07T18:58:36.559Z,5.70
2022-09-07T19:01:39.852Z,4.87
2022-09-07T19:08:05.007Z,5.47
2022-09-07T19:11:13.019Z,5.23
2022-09-07T19:14:15.574Z,5.43
2022-09-07T19:17:18.839Z,5.43
2022-09-07T19:20:21.359Z,5.70
2022-09-07T19:23:23.778Z,5.50
2022-09-07T19:26:28.223Z,5.80
2022-09-07T19:29:30.821Z,5.23
2022-09-07T19:32:33.877Z,5.70
2022-09-07T19:35:39.655Z,5.20
2022-09-07T19:38:43.248Z,5.93
2022-09-07T19:41:45.757Z,5.67
2022-09-07T19:44:48.263Z,6.10
2022-09-07T19:47:51.187Z,6.30
2022-09-07T19:50:53.884Z,5.33
2022-09-07T19:53:56.337Z,5.40
2022-09-07T19:56:59.309Z,5.60
2022-09-07T20:00:01.653Z,5.27
2022-09-07T20:03:14.110Z,6.00
2022-09-07T20:06:18.212Z,6.03
2022-09-07T20:09:21.021Z,6.00
2022-09-07T20:12:23.022Z,6.00
2022-09-07T20:15:25.500Z,6.33
2022-09-07T20:18:28.352Z,5.57
2022-09-07T20:21:31.518Z,5.47
2022-09-07T20:24:34.566Z,6.07
2022-09-07T20:31:25.823Z,5.80
2022-09-07T20:34:29.174Z,6.00
2022-09-07T20:37:31.276Z,5.30
2022-09-07T20:40:33.693Z,5.43
2022-09-07T20:43:35.577Z,5.50
2022-09-07T20:46:37.678Z,5.83
2022-09-07T20:49:39.793Z,5.60
2022-09-07T20:52:41.811Z,5.47
2022-09-07T20:55:43.716Z,5.20
2022-09-07T20:58:46.867Z,5.43
2022-09-07T21:01:51.372Z,5.67
2022-09-07T21:04:53.602Z,5.00
2022-09-07T21:08:01.620Z,5.13
2022-09-07T21:11:12.563Z,5.60
2022-09-07T21:14:25.064Z,5.40
2022-09-07T21:17:30.001Z,5.33
2022-09-07T21:20:33.478Z,5.77
2022-09-07T21:23:38.494Z,5.70
2022-09-07T21:26:48.239Z,5.47
2022-09-07T21:29:56.135Z,5.33
2022-09-07T21:33:02.941Z,5.40
2022-09-07T21:36:09.801Z,5.27
2022-09-07T21:39:14.494Z,5.17
2022-09-07T21:42:17.275Z,5.77
2022-09-07T21:45:19.287Z,5.17
2022-09-07T21:48:21.215Z,5.40
2022-09-07T21:51:24.334Z,5.23
2022-09-07T21:54:26.439Z,4.90
2022-09-07T21:57:28.371Z,5.00
2022-09-07T22:00:30.440Z,5.00
2022-09-07T22:03:32.451Z,4.37
2022-09-07T22:06:35.301Z,5.30
2022-09-07T22:09:37.217Z,4.87
2022-09-07T22:12:39.189Z,5.10
2022-09-07T22:15:41.675Z,4.47
2022-09-07T22:18:45.539Z,4.77
2022-09-07T22:21:47.574Z,5.30
2022-09-07T22:24:49.495Z,4.77
2022-09-07T22:27:51.468Z,4.90
2022-09-07T22:30:54.950Z,4.97
2022-09-07T22:33:58.811Z,5.23
2022-09-07T22:37:00.700Z,5.27
2022-09-07T22:40:03.756Z,5.53
2022-09-07T22:43:07.486Z,4.93
2022-09-07T22:46:10.309Z,5.27
2022-09-07T22:49:14.556Z,5.50
2022-09-07T22:52:16.506Z,4.83
2022-09-07T22:55:18.499Z,5.23
2022-09-07T22:58:20.952Z,4.97
2022-09-07T23:01:23.695Z,5.30
2022-09-07T23:04:29.818Z,4.90
2022-09-07T23:07:33.595Z,4.87
2022-09-07T23:10:36.760Z,5.53
2022-09-07T23:13:38.681Z,4.90
2022-09-07T23:16:40.767Z,5.13
2022-09-07T23:19:42.824Z,5.33
2022-09-07T23:22:45.270Z,4.90
2022-09-07T23:25:47.342Z,4.63
2022-09-07T23:28:53.844Z,4.53
2022-09-07T23:31:55.807Z,4.57
2022-09-07T23:34:57.748Z,4.60
2022-09-07T23:37:59.697Z,4.53
2022-09-07T23:41:02.006Z,4.70
2022-09-07T23:44:04.044Z,4.93
2022-09-07T23:47:06.089Z,4.60
2022-09-07T23:50:08.308Z,4.10
2022-09-07T23:53:10.356Z,4.50
2022-09-07T23:56:12.360Z,3.87
2022-09-07T23:59:14.410Z,4.30
